createdAt,value
2024-02-29T00:01:23.001Z,100755.97
2024-02-29T00:03:50.433Z,100754.25
2024-02-29T00:09:58.920Z,100748.34
2024-02-29T00:12:26.393Z,100737.91
2024-02-29T00:14:53.755Z,100759.34
2024-02-29T00:17:21.454Z,100764.56
2024-02-29T00:19:48.823Z,100765.50
2024-02-29T00:22:16.174Z,100765.44
2024-02-29T00:24:43.567Z,100772.41
2024-02-29T00:27:10.890Z,100765.50
2024-02-29T00:29:39.887Z,100763.78
2024-02-29T00:32:09.432Z,100769.72
2024-02-29T00:34:36.905Z,100774.88
2024-02-29T00:37:04.344Z,100772.28
2024-02-29T00:39:31.844Z,100782.66
2024-02-29T00:41:59.234Z,100771.56
2024-02-29T00:44:26.684Z,100762.09
2024-02-29T00:46:54.055Z,100763.75
2024-02-29T00:49:21.425Z,100758.59
2024-02-29T00:51:49.347Z,100758.50
2024-02-29T00:54:16.739Z,100750.59
2024-02-29T00:56:44.186Z,100762.44
2024-02-29T00:59:11.777Z,100757.19
2024-02-29T01:01:39.269Z,100760.72
2024-02-29T01:04:06.796Z,100756.59
2024-02-29T01:06:34.182Z,100751.50
2024-02-29T01:09:01.803Z,100750.63
2024-02-29T01:11:29.716Z,100755.72
2024-02-29T01:13:57.163Z,100742.75
2024-02-29T01:16:24.452Z,100750.50
2024-02-29T01:18:51.926Z,100756.50
2024-02-29T01:21:19.264Z,100740.13
2024-02-29T01:23:46.837Z,100751.19
2024-02-29T01:26:14.316Z,100746.91
2024-02-29T01:28:41.715Z,100744.25
2024-02-29T01:31:09.052Z,100747.69
2024-02-29T01:33:37.853Z,100737.44
2024-02-29T01:36:05.349Z,100739.00
2024-02-29T01:38:32.739Z,100739.06
2024-02-29T01:41:00.036Z,100740.81
2024-02-29T01:43:30.800Z,100742.50
2024-02-29T01:46:15.000Z,100741.56
2024-02-29T01:48:42.923Z,100732.97
2024-02-29T01:51:11.656Z,100732.94
2024-02-29T01:53:39.350Z,100740.72
2024-02-29T01:56:06.990Z,100736.50
2024-02-29T01:58:35.555Z,100745.09
2024-02-29T02:01:03.033Z,100733.00
2024-02-29T02:03:30.945Z,100739.13
2024-02-29T02:05:58.301Z,100733.94
2024-02-29T02:08:28.162Z,100740.66
2024-02-29T02:10:55.486Z,100736.34
2024-02-29T02:13:23.324Z,100737.06
2024-02-29T02:15:50.918Z,100730.19
2024-02-29T02:18:18.606Z,100726.81
2024-02-29T02:20:46.010Z,100721.63
2024-02-29T02:23:13.365Z,100716.47
2024-02-29T02:25:40.714Z,100716.44
2024-02-29T02:28:08.130Z,100721.63
2024-02-29T02:30:35.602Z,100712.16
2024-02-29T02:33:03.137Z,100713.78
2024-02-29T02:35:30.610Z,100710.41
2024-02-29T02:37:57.992Z,100702.69
2024-02-29T02:40:25.417Z,100694.88
2024-02-29T02:42:52.803Z,100698.31
2024-02-29T02:45:20.134Z,100693.25
2024-02-29T02:47:47.575Z,100693.25
2024-02-29T02:50:15.656Z,100683.72
2024-02-29T02:52:43.117Z,100690.53
2024-02-29T02:55:10.414Z,100683.66
2024-02-29T02:57:37.851Z,100691.22
2024-02-29T03:00:06.766Z,100692.00
2024-02-29T03:02:34.759Z,100692.81
2024-02-29T03:05:02.110Z,100688.50
2024-02-29T03:07:29.481Z,100699.72
2024-02-29T03:09:56.888Z,100693.69
2024-02-29T03:12:24.363Z,100689.38
2024-02-29T03:14:51.723Z,100696.28
2024-02-29T03:17:19.721Z,100687.69
2024-02-29T03:19:47.097Z,100694.50
2024-02-29T03:22:14.953Z,100703.13
2024-02-29T03:24:44.811Z,100697.94
2024-02-29T03:27:12.648Z,100706.50
2024-02-29T03:29:40.037Z,100706.44
2024-02-29T03:32:07.282Z,100692.75
2024-02-29T03:34:34.625Z,100689.28
2024-02-29T03:37:02.016Z,100690.97
2024-02-29T03:39:29.844Z,100690.97
2024-02-29T03:41:57.192Z,100677.19
2024-02-29T03:44:24.478Z,100694.38
2024-02-29T03:46:51.992Z,100685.84
2024-02-29T03:49:19.440Z,100685.78
2024-02-29T03:51:46.948Z,100679.66
2024-02-29T03:54:14.343Z,100678.88
2024-02-29T03:56:41.683Z,100675.34
2024-02-29T03:59:09.018Z,100679.63
2024-02-29T04:01:38.264Z,100683.19
2024-02-29T04:04:05.713Z,100678.09
2024-02-29T04:06:33.169Z,100667.81
2024-02-29T04:09:00.582Z,100663.53
2024-02-29T04:11:28.044Z,100648.91
2024-02-29T04:13:56.194Z,100653.16
2024-02-29T04:16:23.825Z,100656.56
2024-02-29T04:18:51.359Z,100643.63
2024-02-29T04:21:18.875Z,100637.53
2024-02-29T04:23:46.195Z,100633.13
2024-02-29T04:26:13.700Z,100639.06
2024-02-29T04:28:41.035Z,100649.28
2024-02-29T04:31:08.414Z,100658.69
2024-02-29T04:33:37.814Z,100660.28
2024-02-29T04:36:05.471Z,100664.59
2024-02-29T04:38:32.813Z,100675.81
2024-02-29T04:41:00.133Z,100692.16
2024-02-29T04:43:27.733Z,100684.44
2024-02-29T04:45:56.502Z,100687.06
2024-02-29T04:48:23.921Z,100687.97
2024-02-29T04:50:51.184Z,100681.03
2024-02-29T04:53:19.197Z,100690.47
2024-02-29T04:55:46.526Z,100686.19
2024-02-29T04:58:13.958Z,100676.88
2024-02-29T05:00:41.389Z,100683.75
2024-02-29T05:03:08.828Z,100688.03
2024-02-29T05:05:36.228Z,100684.59
2024-02-29T05:08:04.176Z,100687.16
2024-02-29T05:10:31.548Z,100685.50
2024-02-29T05:12:58.930Z,100683.75
2024-02-29T05:15:26.251Z,100680.31
2024-02-29T05:17:54.676Z,100679.44
2024-02-29T05:20:22.010Z,100688.97
2024-02-29T05:22:52.310Z,100690.66
2024-02-29T05:25:19.654Z,100690.72
2024-02-29T05:27:47.008Z,100695.00
2024-02-29T05:30:16.152Z,100693.22
2024-02-29T05:32:43.933Z,100724.41
2024-02-29T05:35:12.253Z,100698.09
2024-02-29T05:37:39.630Z,100695.59
2024-02-29T05:40:07.597Z,100699.09
2024-02-29T05:42:35.324Z,100696.53
2024-02-29T05:45:02.759Z,100699.13
2024-02-29T05:47:30.106Z,100697.41
2024-02-29T05:49:57.735Z,100699.97
2024-02-29T05:52:25.110Z,100685.38
2024-02-29T05:54:52.561Z,100685.44
2024-02-29T05:57:19.890Z,100678.50
2024-02-29T05:59:47.516Z,100687.94
2024-02-29T06:02:14.850Z,100677.63
2024-02-29T06:04:42.215Z,100682.78
2024-02-29T06:07:09.754Z,100682.78
2024-02-29T06:09:37.983Z,100679.28
2024-02-29T06:12:05.635Z,100687.97
2024-02-29T06:14:33.030Z,100690.59
2024-02-29T06:17:00.400Z,100689.00
2024-02-29T06:19:27.788Z,100686.09
2024-02-29T06:21:55.265Z,100692.00
2024-02-29T06:24:22.631Z,100689.50
2024-02-29T06:26:50.149Z,100676.66
2024-02-29T06:29:17.511Z,100674.13
2024-02-29T06:31:44.941Z,100669.00
2024-02-29T06:34:12.445Z,100681.06
2024-02-29T06:36:39.917Z,100668.28
2024-02-29T06:39:09.561Z,100674.34
2024-02-29T06:41:37.949Z,100677.81
2024-02-29T06:44:07.690Z,100673.56
2024-02-29T06:46:35.195Z,100665.09
2024-02-29T06:49:03.126Z,100660.97
2024-02-29T06:51:31.359Z,100667.91
2024-02-29T06:53:58.767Z,100672.25
2024-02-29T06:56:26.124Z,100663.75
2024-02-29T06:58:53.657Z,100662.13
2024-02-29T07:01:23.894Z,100653.66
2024-02-29T07:03:51.353Z,100651.97
2024-02-29T07:06:18.780Z,100655.41
2024-02-29T07:08:47.288Z,100647.72
2024-02-29T07:11:15.604Z,100654.56
2024-02-29T07:13:43.030Z,100650.28
2024-02-29T07:16:11.720Z,100644.34
2024-02-29T07:18:39.167Z,100641.88
2024-02-29T07:21:06.654Z,100644.59
2024-02-29T07:23:34.257Z,100641.25
2024-02-29T07:26:05.494Z,100637.78
2024-02-29T07:28:33.094Z,100642.19
2024-02-29T07:31:00.522Z,100644.00
2024-02-29T07:33:28.926Z,100641.47
2024-02-29T07:35:56.276Z,100638.88
2024-02-29T07:38:23.603Z,100638.13
2024-02-29T07:40:51.132Z,100630.41
2024-02-29T07:43:19.026Z,100627.84
2024-02-29T07:45:46.405Z,100637.38
2024-02-29T07:48:14.734Z,100638.41
2024-02-29T07:50:42.077Z,100644.47
2024-02-29T07:53:09.969Z,100638.53
2024-02-29T07:55:38.521Z,100642.91
2024-02-29T07:58:08.124Z,100635.22
2024-02-29T08:00:37.572Z,100641.25
2024-02-29T08:03:06.390Z,100630.06
2024-02-29T08:05:39.715Z,100624.84
2024-02-29T08:08:09.260Z,100637.81
2024-02-29T08:10:36.589Z,100643.97
2024-02-29T08:13:04.420Z,100632.94
2024-02-29T08:15:38.095Z,100636.44
2024-02-29T08:18:05.671Z,100637.38
2024-02-29T08:20:33.015Z,100639.94
2024-02-29T08:23:00.442Z,100629.78
2024-02-29T08:25:28.020Z,100628.84
2024-02-29T08:27:55.761Z,100640.94
2024-02-29T08:30:23.210Z,100631.59
2024-02-29T08:32:51.091Z,100634.25
2024-02-29T08:35:20.235Z,100630.91
2024-02-29T08:37:47.646Z,100631.88
2024-02-29T08:40:15.528Z,100634.59
2024-02-29T08:42:42.966Z,100625.88
2024-02-29T08:45:10.885Z,100625.06
2024-02-29T08:47:38.204Z,100626.13
2024-02-29T08:50:07.286Z,100638.44
2024-02-29T08:52:35.417Z,100625.78
2024-02-29T08:55:02.899Z,100629.19
2024-02-29T08:57:30.538Z,100632.69
2024-02-29T08:59:57.850Z,100627.09
2024-02-29T09:02:25.270Z,100600.59
2024-02-29T09:04:52.882Z,100609.16
2024-02-29T09:07:20.446Z,100617.75
2024-02-29T09:09:47.774Z,100620.47
2024-02-29T09:12:18.486Z,100611.13
2024-02-29T09:14:47.945Z,100596.56
2024-02-29T09:17:16.220Z,100607.66
2024-02-29T09:19:43.708Z,100608.31
2024-02-29T09:22:11.195Z,100616.91
2024-02-29T09:24:38.724Z,100610.91
2024-02-29T09:27:06.329Z,100608.34
2024-02-29T09:29:34.806Z,100612.63
2024-02-29T09:32:03.849Z,100606.69
2024-02-29T09:34:36.399Z,100607.69
2024-02-29T09:37:06.568Z,100601.00
2024-02-29T09:39:34.379Z,100599.41
2024-02-29T09:42:12.503Z,100597.75
2024-02-29T09:44:41.831Z,100598.56
2024-02-29T09:47:20.969Z,100589.03
2024-02-29T09:50:09.410Z,100598.47
2024-02-29T09:52:40.432Z,100595.13
2024-02-29T09:55:15.017Z,100611.50
2024-02-29T09:57:43.071Z,100596.09
2024-02-29T10:00:13.908Z,100598.75
2024-02-29T10:05:27.939Z,100590.00
2024-02-29T10:07:55.422Z,100587.34
2024-02-29T10:10:22.819Z,100587.22
2024-02-29T10:12:57.222Z,100582.72
2024-02-29T10:15:28.271Z,100590.72
2024-02-29T10:17:57.399Z,100584.25
2024-02-29T10:20:26.114Z,100554.94
2024-02-29T10:26:34.226Z,100580.69
2024-02-29T10:29:11.397Z,100574.78
2024-02-29T10:31:39.914Z,100560.31
2024-02-29T10:34:11.130Z,100553.31
2024-02-29T10:36:38.558Z,100561.16
2024-02-29T10:39:05.980Z,100549.97
2024-02-29T10:41:33.914Z,100542.25
2024-02-29T10:44:07.462Z,100535.41
2024-02-29T10:46:39.441Z,100537.13
2024-02-29T10:49:32.008Z,100544.09
2024-02-29T10:52:11.011Z,100536.44
2024-02-29T10:54:47.663Z,100525.31
2024-02-29T10:57:16.862Z,100537.38
2024-02-29T10:59:55.517Z,100534.03
2024-02-29T11:02:23.012Z,100547.97
2024-02-29T11:04:50.417Z,100535.97
2024-02-29T11:07:18.490Z,100537.78
2024-02-29T11:09:45.826Z,100530.03
2024-02-29T11:12:17.527Z,100524.91
2024-02-29T11:14:46.322Z,100515.47
2024-02-29T11:17:17.152Z,100513.81
2024-02-29T11:19:52.116Z,100515.69
2024-02-29T11:22:34.713Z,100505.38
2024-02-29T11:25:12.080Z,100507.19
2024-02-29T11:27:47.285Z,100499.47
2024-02-29T11:30:18.371Z,100501.16
2024-02-29T11:32:45.745Z,100491.69
2024-02-29T11:35:13.069Z,100495.28
2024-02-29T11:37:41.050Z,100484.09
2024-02-29T11:40:08.887Z,100482.38
2024-02-29T11:42:37.922Z,100481.56
2024-02-29T11:45:05.971Z,100485.03
2024-02-29T11:47:33.406Z,100489.41
2024-02-29T11:50:01.770Z,100482.56
2024-02-29T11:52:29.467Z,100472.25
2024-02-29T11:54:57.254Z,100470.56
2024-02-29T11:57:24.997Z,100460.28
2024-02-29T11:59:54.735Z,100469.84
2024-02-29T12:02:23.527Z,100464.66
2024-02-29T12:04:50.809Z,100458.63
2024-02-29T12:07:18.746Z,100455.19
2024-02-29T12:09:47.019Z,100460.44
2024-02-29T12:12:14.661Z,100439.66
2024-02-29T12:14:43.981Z,100441.31
2024-02-29T12:17:11.361Z,100441.31
2024-02-29T12:19:41.445Z,100429.25
2024-02-29T12:22:13.778Z,100434.50
2024-02-29T12:24:43.634Z,100436.19
2024-02-29T12:27:11.173Z,100433.59
2024-02-29T12:29:38.568Z,100430.13
2024-02-29T12:32:06.099Z,100418.84
2024-02-29T12:34:33.529Z,100418.81
2024-02-29T12:37:01.937Z,100424.91
2024-02-29T12:39:29.214Z,100420.66
2024-02-29T12:41:56.658Z,100414.66
2024-02-29T12:44:23.932Z,100409.50
2024-02-29T12:46:57.430Z,100411.28
2024-02-29T12:49:25.012Z,100412.16
2024-02-29T12:51:54.954Z,100414.84
2024-02-29T12:54:23.281Z,100396.63
2024-02-29T12:56:50.667Z,100400.97
2024-02-29T12:59:19.000Z,100397.50
2024-02-29T13:01:52.006Z,100397.56
2024-02-29T13:04:19.325Z,100391.47
2024-02-29T13:06:46.758Z,100397.53
2024-02-29T13:09:14.150Z,100393.25
2024-02-29T13:11:41.526Z,100389.81
2024-02-29T13:14:08.843Z,100382.03
2024-02-29T13:16:36.202Z,100386.38
2024-02-29T13:19:03.529Z,100378.63
2024-02-29T13:21:30.845Z,100375.09
2024-02-29T13:23:58.270Z,100385.47
2024-02-29T13:26:25.800Z,100372.53
2024-02-29T13:28:53.197Z,100369.03
2024-02-29T13:31:20.573Z,100375.06
2024-02-29T13:33:47.964Z,100365.59
2024-02-29T13:36:15.470Z,100363.88
2024-02-29T13:38:42.994Z,100361.25
2024-02-29T13:41:11.218Z,100336.13
2024-02-29T13:43:38.723Z,100358.63
2024-02-29T13:46:06.107Z,100362.94
2024-02-29T13:48:33.431Z,100350.81
2024-02-29T13:51:00.733Z,100346.50
2024-02-29T13:53:28.033Z,100349.91
2024-02-29T13:55:55.532Z,100351.63
2024-02-29T13:58:23.017Z,100351.66
2024-02-29T14:00:50.627Z,100346.47
2024-02-29T14:03:18.079Z,100338.69
2024-02-29T14:05:45.377Z,100345.63
2024-02-29T14:08:12.674Z,100343.84
2024-02-29T14:10:39.973Z,100337.81
2024-02-29T14:13:08.469Z,100336.94
2024-02-29T14:15:35.792Z,100336.03
2024-02-29T14:18:04.270Z,100341.22
2024-02-29T14:20:31.742Z,100336.03
2024-02-29T14:22:59.104Z,100336.03
2024-02-29T14:25:27.021Z,100335.22
2024-02-29T14:27:55.004Z,100336.94
2024-02-29T14:30:22.395Z,100335.22
2024-02-29T14:32:49.843Z,100336.97
2024-02-29T14:35:17.226Z,100333.50
2024-02-29T14:37:44.610Z,100329.16
2024-02-29T14:40:12.843Z,100334.31
2024-02-29T14:42:40.722Z,100332.59
2024-02-29T14:45:08.604Z,100326.53
2024-02-29T14:47:36.113Z,100325.63
2024-02-29T14:50:03.477Z,100333.44
2024-02-29T14:52:30.931Z,100322.19
2024-02-29T14:54:58.430Z,100318.72
2024-02-29T14:57:25.953Z,100325.56
2024-02-29T14:59:53.457Z,100321.22
2024-02-29T15:02:20.778Z,100316.91
2024-02-29T15:04:48.166Z,100333.28
2024-02-29T15:07:15.850Z,100317.69
2024-02-29T15:09:43.260Z,100319.41
2024-02-29T15:12:10.605Z,100315.06
2024-02-29T15:14:38.053Z,100315.06
2024-02-29T15:17:05.580Z,100308.13
2024-02-29T15:19:33.033Z,100316.72
2024-02-29T15:22:00.450Z,100308.91
2024-02-29T15:24:30.173Z,100310.63
2024-02-29T15:27:00.816Z,100326.97
2024-02-29T15:29:28.352Z,100319.16
2024-02-29T15:31:55.780Z,100316.56
2024-02-29T15:34:23.250Z,100311.31
2024-02-29T15:36:50.706Z,100311.31
2024-02-29T15:39:18.029Z,100310.47
2024-02-29T15:41:45.396Z,100315.66
2024-02-29T15:44:12.689Z,100304.44
2024-02-29T15:46:40.334Z,100307.88
2024-02-29T15:49:07.873Z,100305.28
2024-02-29T15:51:35.300Z,100294.06
2024-02-29T15:54:02.845Z,100300.94
2024-02-29T15:56:30.819Z,100298.31
2024-02-29T15:58:58.346Z,100298.28
2024-02-29T16:01:26.061Z,100297.47
2024-02-29T16:03:54.107Z,100297.41
2024-02-29T16:06:21.459Z,100291.41
2024-02-29T16:08:48.805Z,100294.06
2024-02-29T16:11:16.534Z,100288.00
2024-02-29T16:13:43.937Z,100285.47
2024-02-29T16:16:12.104Z,100281.97
2024-02-29T16:18:39.494Z,100287.97
2024-02-29T16:21:07.567Z,100288.00
2024-02-29T16:23:37.952Z,100285.38
2024-02-29T16:26:06.352Z,100288.00
2024-02-29T16:28:33.707Z,100292.28
2024-02-29T16:31:01.127Z,100287.09
2024-02-29T16:33:28.480Z,100300.06
2024-02-29T16:35:55.783Z,100294.06
2024-02-29T16:38:23.187Z,100300.09
2024-02-29T16:40:50.658Z,100292.38
2024-02-29T16:43:22.038Z,100291.50
2024-02-29T16:45:50.358Z,100290.69
2024-02-29T16:48:17.794Z,100282.91
2024-02-29T16:50:46.314Z,100290.69
2024-02-29T16:53:13.837Z,100292.44
2024-02-29T16:55:41.191Z,100280.28
2024-02-29T16:58:08.736Z,100279.31
2024-02-29T17:00:36.904Z,100275.75
2024-02-29T17:03:05.436Z,100276.50
2024-02-29T17:05:33.409Z,100264.31
2024-02-29T17:08:00.792Z,100270.25
2024-02-29T17:10:28.402Z,100279.69
2024-02-29T17:12:59.631Z,100277.03
2024-02-29T17:15:27.312Z,100277.81
2024-02-29T17:17:54.742Z,100276.88
2024-02-29T17:20:22.484Z,100274.19
2024-02-29T17:22:49.912Z,100277.59
2024-02-29T17:25:17.305Z,100274.94
2024-02-29T17:27:45.775Z,100280.88
2024-02-29T17:30:13.364Z,100279.06
2024-02-29T17:32:41.078Z,100282.44
2024-02-29T17:35:09.191Z,100289.41
2024-02-29T17:37:36.606Z,100298.09
2024-02-29T17:40:04.188Z,100297.31
2024-02-29T17:42:31.700Z,100293.22
2024-02-29T17:44:59.074Z,100294.16
2024-02-29T17:47:26.307Z,100289.03
2024-02-29T17:49:53.558Z,100283.09
2024-02-29T17:52:21.011Z,100295.19
2024-02-29T17:54:48.539Z,100283.13
2024-02-29T17:57:15.958Z,100278.84
2024-02-29T17:59:43.201Z,100276.31
2024-02-29T18:02:10.994Z,100260.78
2024-02-29T18:04:38.893Z,100263.41
2024-02-29T18:07:06.313Z,100262.56
2024-02-29T18:09:33.800Z,100259.97
2024-02-29T18:12:01.114Z,100257.38
2024-02-29T18:14:30.336Z,100247.03
2024-02-29T18:16:57.937Z,100253.94
2024-02-29T18:19:25.255Z,100247.84
2024-02-29T18:21:53.088Z,100247.84
2024-02-29T18:24:21.456Z,100245.19
2024-02-29T18:26:49.317Z,100242.56
2024-02-29T18:29:17.497Z,100245.16
2024-02-29T18:31:44.875Z,100238.19
2024-02-29T18:34:12.242Z,100244.19
2024-02-29T18:36:40.691Z,100243.38
2024-02-29T18:39:13.180Z,100243.38
2024-02-29T18:41:42.307Z,100234.75
2024-02-29T18:44:10.506Z,100226.91
2024-02-29T18:46:40.035Z,100231.19
2024-02-29T18:49:07.763Z,100228.53
2024-02-29T18:51:35.274Z,100229.34
2024-02-29T18:54:02.572Z,100229.28
2024-02-29T18:56:29.968Z,100227.53
2024-02-29T18:58:58.217Z,100228.38
2024-02-29T19:01:25.578Z,100222.34
2024-02-29T19:03:53.711Z,100225.81
2024-02-29T19:06:20.995Z,100217.22
2024-02-29T19:08:48.376Z,100215.56
2024-02-29T19:11:15.752Z,100219.00
2024-02-29T19:13:43.003Z,100213.84
2024-02-29T19:16:11.972Z,100217.31
2024-02-29T19:18:39.317Z,100205.25
2024-02-29T19:21:06.658Z,100206.16
2024-02-29T19:23:33.981Z,100194.91
2024-02-29T19:26:01.520Z,100200.13
2024-02-29T19:28:33.989Z,100198.47
2024-02-29T19:31:05.901Z,100195.03
2024-02-29T19:33:33.290Z,100197.63
2024-02-29T19:36:07.207Z,100192.44
2024-02-29T19:38:46.754Z,100194.19
2024-02-29T19:41:14.455Z,100181.25
2024-02-29T19:43:42.332Z,100194.25
2024-02-29T19:46:11.229Z,100199.44
2024-02-29T19:48:38.906Z,100187.41
2024-02-29T19:51:08.651Z,100188.31
2024-02-29T19:53:38.636Z,100185.72
2024-02-29T19:56:07.349Z,100185.75
2024-02-29T19:58:35.146Z,100183.22
2024-02-29T20:01:04.747Z,100172.00
2024-02-29T20:03:32.114Z,100178.91
2024-02-29T20:05:59.614Z,100172.91
2024-02-29T20:08:26.889Z,100175.50
2024-02-29T20:10:54.346Z,100175.53
2024-02-29T20:13:22.489Z,100180.72
2024-02-29T20:15:51.049Z,100174.66
2024-02-29T20:18:19.781Z,100168.63
2024-02-29T20:20:47.161Z,100169.53
2024-02-29T20:23:15.477Z,100172.09
2024-02-29T20:25:46.041Z,100169.53
2024-02-29T20:28:14.763Z,100166.06
2024-02-29T20:30:42.280Z,100158.31
2024-02-29T20:33:11.303Z,100166.94
2024-02-29T20:35:39.199Z,100152.25
2024-02-29T20:38:06.660Z,100154.03
2024-02-29T20:40:34.830Z,100147.09
2024-02-29T20:43:02.342Z,100149.66
2024-02-29T20:45:31.061Z,100137.63
2024-02-29T20:47:58.360Z,100145.38
2024-02-29T20:50:28.543Z,100140.22
2024-02-29T20:52:55.775Z,100135.88
2024-02-29T20:55:23.141Z,100129.84
2024-02-29T20:57:50.471Z,100134.16
2024-02-29T21:00:18.089Z,100127.25
2024-02-29T21:02:45.435Z,100126.41
2024-02-29T21:05:12.727Z,100118.66
2024-02-29T21:07:42.216Z,100116.06
2024-02-29T21:10:11.795Z,100117.78
2024-02-29T21:12:39.184Z,100111.72
2024-02-29T21:15:06.874Z,100117.75
2024-02-29T21:17:34.207Z,100109.16
2024-02-29T21:20:01.581Z,100111.75
2024-02-29T21:22:29.239Z,100111.75
2024-02-29T21:24:56.746Z,100104.84
2024-02-29T21:27:24.029Z,100111.75
2024-02-29T21:29:52.614Z,100102.25
2024-02-29T21:32:19.878Z,100103.13
2024-02-29T21:34:47.216Z,100094.50
2024-02-29T21:37:14.504Z,100086.69
2024-02-29T21:39:45.150Z,100086.69
2024-02-29T21:42:14.149Z,100090.13
2024-02-29T21:44:41.722Z,100080.66
2024-02-29T21:47:09.259Z,100078.94
2024-02-29T21:49:36.509Z,100072.00
2024-02-29T21:52:04.313Z,100072.00
2024-02-29T21:54:31.822Z,100075.47
2024-02-29T21:56:59.295Z,100063.38
2024-02-29T21:59:26.607Z,100072.00
2024-02-29T22:01:55.631Z,100082.38
2024-02-29T22:04:23.402Z,100075.47
2024-02-29T22:06:52.642Z,100078.06
2024-02-29T22:09:20.159Z,100075.47
2024-02-29T22:11:47.462Z,100072.00
2024-02-29T22:14:14.684Z,100080.66
2024-02-29T22:16:44.884Z,100070.28
2024-02-29T22:19:12.668Z,100064.28
2024-02-29T22:21:39.970Z,100066.84
2024-02-29T22:24:07.406Z,100066.00
2024-02-29T22:26:34.940Z,100062.53
2024-02-29T22:29:03.179Z,100061.69
2024-02-29T22:31:31.303Z,100054.78
2024-02-29T22:33:59.392Z,100051.31
2024-02-29T22:36:26.679Z,100048.72
2024-02-29T22:38:53.915Z,100046.16
2024-02-29T22:41:21.115Z,100041.84
2024-02-29T22:43:48.521Z,100037.53
2024-02-29T22:46:15.823Z,100032.38
2024-02-29T22:48:43.161Z,100031.50
2024-02-29T22:51:10.428Z,100033.22
2024-02-29T22:53:37.844Z,100026.34
2024-02-29T22:56:05.843Z,100025.50
2024-02-29T22:58:33.221Z,100028.06
2024-02-29T23:01:00.638Z,100022.88
2024-02-29T23:03:27.971Z,100027.22
2024-02-29T23:05:55.219Z,100022.06
2024-02-29T23:08:22.515Z,100027.25
2024-02-29T23:10:49.910Z,100026.38
2024-02-29T23:13:17.379Z,100027.25
2024-02-29T23:15:44.718Z,100026.41
2024-02-29T23:18:12.055Z,100026.41
2024-02-29T23:20:39.331Z,100019.50
2024-02-29T23:23:06.708Z,100020.34
2024-02-29T23:25:34.226Z,100018.66
2024-02-29T23:28:02.539Z,100014.31
2024-02-29T23:30:29.721Z,100005.69
2024-02-29T23:32:57.115Z,100007.44
2024-02-29T23:35:24.341Z,100007.44
2024-02-29T23:37:52.300Z,100001.38
2024-02-29T23:40:19.887Z,99997.09
2024-02-29T23:42:47.356Z,99996.22
2024-02-29T23:45:14.656Z,99997.09
2024-02-29T23:47:42.078Z,99996.22
2024-02-29T23:50:10.197Z,99991.06
2024-02-29T23:52:37.722Z,99997.09
2024-02-29T23:55:06.392Z,99989.31
2024-02-29T23:57:33.741Z,99991.91
